Time;durP1;ratioP1;P1;durP2;ratioP2;P2;SDS_P1;SDS_P2;PMS_P1;PMS_P2;Temp;Humidity;BMP_temperature;BMP_pressure;BME280_temperature;BME280_humidity;BME280_pressure;Samples;Min_cycle;Max_cycle;Signal;HPM_P1;HPM_P2
2022/07/15 00:00:50;;;;;;;0.52;0.43;;;;;;;12.43;100.00;100816.16;7386934;19;20011;-78
2022/07/15 00:03:16;;;;;;;0.45;0.32;;;;;;;12.47;100.00;100820.38;7384492;19;20443;-78
2022/07/15 00:05:42;;;;;;;0.52;0.40;;;;;;;12.49;100.00;100817.88;7388323;19;20427;-79
2022/07/15 00:08:08;;;;;;;0.30;0.30;;;;;;;12.50;100.00;100815.84;7386939;19;20014;-77
2022/07/15 00:10:34;;;;;;;0.20;0.20;;;;;;;12.54;100.00;100817.25;7387921;19;20018;-78
2022/07/15 00:13:02;;;;;;;0.20;0.20;;;;;;;12.56;100.00;100814.75;7387437;19;20045;-78
2022/07/15 00:15:30;;;;;;;0.73;0.35;;;;;;;12.54;100.00;100816.50;7388559;19;20574;-78
2022/07/15 00:18:01;;;;;;;0.28;0.28;;;;;;;12.55;100.00;100806.84;7386937;19;20106;-78
2022/07/15 00:20:33;;;;;;;0.10;0.10;;;;;;;12.53;100.00;100801.72;7386071;19;20020;-78
2022/07/15 00:23:01;;;;;;;1.13;0.30;;;;;;;12.55;100.00;100802.03;7385619;19;20032;-77
2022/07/15 00:25:28;;;;;;;3.20;0.40;;;;;;;12.53;100.00;100800.94;7384216;19;20078;-78
2022/07/15 00:28:03;;;;;;;2.75;0.30;;;;;;;12.50;100.00;100805.44;7383889;19;20014;-78
2022/07/15 00:30:31;;;;;;;0.30;0.30;;;;;;;12.43;100.00;100791.03;7381945;19;20086;-78
2022/07/15 00:33:00;;;;;;;0.20;0.20;;;;;;;12.36;100.00;100792.13;7385679;19;20070;-79
2022/07/15 00:35:28;;;;;;;1.02;0.30;;;;;;;12.33;100.00;100786.66;7384635;19;20023;-79
2022/07/15 00:37:54;;;;;;;0.40;0.40;;;;;;;12.34;100.00;100788.22;7386091;19;20018;-78
2022/07/15 00:40:21;;;;;;;0.10;0.10;;;;;;;12.27;100.00;100785.72;7384339;19;20020;-79
2022/07/15 00:42:47;;;;;;;0.30;0.30;;;;;;;12.19;100.00;100785.28;7385677;19;20029;-78
2022/07/15 00:45:15;;;;;;;0.30;0.30;;;;;;;12.14;100.00;100778.28;7389001;19;20338;-79
2022/07/15 00:47:46;;;;;;;0.22;0.22;;;;;;;12.12;100.00;100782.78;7386485;19;20023;-79
2022/07/15 00:50:14;;;;;;;0.98;0.52;;;;;;;12.08;100.00;100782.91;7384196;19;20041;-79
2022/07/15 00:52:43;;;;;;;0.20;0.20;;;;;;;12.06;100.00;100787.44;7386004;19;20055;-79
2022/07/15 00:55:11;;;;;;;0.50;0.40;;;;;;;12.02;100.00;100778.41;7385833;19;20018;-78
2022/07/15 00:57:42;;;;;;;5.57;0.93;;;;;;;11.96;100.00;100772.66;7384809;19;20053;-79
2022/07/15 01:00:11;;;;;;;0.30;0.30;;;;;;;11.95;100.00;100762.72;7384486;19;20007;-79
2022/07/15 01:02:39;;;;;;;0.35;0.35;;;;;;;11.95;100.00;100764.75;7386265;19;20026;-79
2022/07/15 01:05:07;;;;;;;0.50;0.50;;;;;;;11.93;100.00;100759.63;7384286;19;20029;-78
2022/07/15 01:07:34;;;;;;;0.75;0.75;;;;;;;11.91;100.00;100755.78;7384786;19;20113;-79
2022/07/15 01:10:00;;;;;;;0.30;0.28;;;;;;;11.89;100.00;100759.00;7384299;19;20487;-79
2022/07/15 01:12:27;;;;;;;0.57;0.50;;;;;;;11.87;100.00;100750.31;7385331;19;20019;-80
2022/07/15 01:14:54;;;;;;;1.88;0.90;;;;;;;11.84;100.00;100751.25;7384859;19;20014;-79
2022/07/15 01:17:20;;;;;;;1.17;1.08;;;;;;;11.80;100.00;100750.59;7387824;19;20014;-79
2022/07/15 01:19:47;;;;;;;0.40;0.40;;;;;;;11.77;100.00;100754.34;7383101;19;20022;-79
2022/07/15 01:22:13;;;;;;;0.30;0.30;;;;;;;11.76;100.00;100744.41;7384386;19;20366;-80
2022/07/15 01:24:39;;;;;;;2.65;0.30;;;;;;;11.74;100.00;100746.88;7383174;19;20049;-79
2022/07/15 01:27:17;;;;;;;1.25;0.50;;;;;;;11.71;100.00;100747.81;7389607;19;20015;-79
2022/07/15 01:29:45;;;;;;;0.60;0.38;;;;;;;11.72;100.00;100738.19;7383301;19;20094;-79
2022/07/15 01:32:11;;;;;;;0.55;0.52;;;;;;;11.53;100.00;100747.72;7388670;19;20029;-78
2022/07/15 01:34:37;;;;;;;2.25;0.57;;;;;;;11.45;100.00;100743.69;7387719;19;20074;-77
2022/07/15 01:37:04;;;;;;;0.20;0.20;;;;;;;11.41;100.00;100752.19;7396055;19;20018;-77
2022/07/15 01:39:32;;;;;;;0.50;0.47;;;;;;;11.37;100.00;100745.97;7391937;19;20337;-77
2022/07/15 01:41:59;;;;;;;0.20;0.20;;;;;;;11.37;100.00;100750.75;7391348;19;20037;-78
2022/07/15 01:44:26;;;;;;;1.05;0.28;;;;;;;11.36;100.00;100754.81;7390795;19;20014;-78
2022/07/15 01:46:53;;;;;;;0.57;0.43;;;;;;;11.35;100.00;100742.88;7394855;19;20041;-78
2022/07/15 01:49:25;;;;;;;6.50;0.45;;;;;;;11.37;100.00;100745.19;7390047;19;20022;-78
2022/07/15 01:52:00;;;;;;;0.40;0.20;;;;;;;11.39;100.00;100742.75;7392485;19;20802;-78
2022/07/15 01:54:28;;;;;;;0.68;0.38;;;;;;;11.30;100.00;100740.66;7388145;19;20025;-77
2022/07/15 01:56:57;;;;;;;0.20;0.20;;;;;;;11.35;100.00;100747.66;7394505;19;20338;-78
2022/07/15 01:59:24;;;;;;;0.50;0.10;;;;;;;11.34;100.00;100746.13;7392470;19;20015;-78
2022/07/15 02:01:53;;;;;;;1.65;0.32;;;;;;;11.43;100.00;100737.78;7394483;19;20014;-78
2022/07/15 02:04:21;;;;;;;0.25;0.22;;;;;;;11.47;100.00;100746.00;7389701;19;20039;-78
2022/07/15 02:06:48;;;;;;;0.30;0.30;;;;;;;11.53;100.00;100744.16;7395661;19;20018;-78
2022/07/15 02:09:17;;;;;;;0.85;0.40;;;;;;;11.55;100.00;100738.88;7391087;19;20020;-78
2022/07/15 02:11:46;;;;;;;7.47;0.40;;;;;;;11.64;100.00;100742.50;7394850;19;20010;-78
2022/07/15 02:14:12;;;;;;;0.20;0.20;;;;;;;11.67;100.00;100736.03;7388947;19;20023;-78
2022/07/15 02:16:39;;;;;;;0.47;0.40;;;;;;;11.71;100.00;100744.25;7393035;19;20034;-77
2022/07/15 02:19:09;;;;;;;0.22;0.22;;;;;;;11.76;100.00;100749.22;7389763;19;20364;-77
2022/07/15 02:21:36;;;;;;;0.65;0.38;;;;;;;11.69;100.00;100746.72;7390948;19;20018;-77
2022/07/15 02:24:02;;;;;;;5.22;0.95;;;;;;;11.69;100.00;100732.78;7389578;19;20026;-78
2022/07/15 02:26:29;;;;;;;0.20;0.20;;;;;;;11.71;100.00;100731.06;7394183;19;20019;-77
2022/07/15 02:28:56;;;;;;;1.70;0.30;;;;;;;11.79;100.00;100737.91;7388540;19;20014;-78
2022/07/15 02:31:25;;;;;;;0.30;0.15;;;;;;;11.81;100.00;100732.63;7391210;19;20014;-77
2022/07/15 02:33:52;;;;;;;5.05;0.80;;;;;;;11.84;100.00;100739.31;7388257;19;20019;-78
2022/07/15 02:36:18;;;;;;;0.32;0.32;;;;;;;11.86;100.00;100743.19;7391758;19;20033;-78
2022/07/15 02:38:46;;;;;;;1.92;0.65;;;;;;;11.87;100.00;100743.94;7388489;19;20010;-78
2022/07/15 02:41:14;;;;;;;0.38;0.30;;;;;;;11.88;100.00;100751.88;7389086;19;20011;-78
2022/07/15 02:43:43;;;;;;;0.82;0.47;;;;;;;11.90;100.00;100741.03;7388400;19;20019;-77
2022/07/15 02:46:11;;;;;;;0.52;0.40;;;;;;;11.92;100.00;100744.13;7391621;19;20102;-77
2022/07/15 02:48:37;;;;;;;0.25;0.25;;;;;;;11.98;100.00;100747.84;7389143;19;20010;-78
2022/07/15 02:51:04;;;;;;;0.52;0.50;;;;;;;11.98;100.00;100745.06;7386152;19;20014;-78
2022/07/15 02:53:31;;;;;;;1.30;0.43;;;;;;;12.03;100.00;100741.66;7387869;19;20490;-79
2022/07/15 02:56:03;;;;;;;0.10;0.10;;;;;;;12.06;100.00;100739.97;7391268;19;20479;-78
2022/07/15 02:58:31;;;;;;;1.08;0.30;;;;;;;12.13;100.00;100742.44;7389054;19;20022;-78
2022/07/15 03:01:00;;;;;;;0.65;0.30;;;;;;;12.10;100.00;100735.00;7389288;19;20014;-77
2022/07/15 03:03:28;;;;;;;2.03;0.45;;;;;;;12.12;100.00;100750.06;7387941;19;20055;-78
2022/07/15 03:06:00;;;;;;;0.30;0.30;;;;;;;12.13;100.00;100748.81;7390306;19;20791;-78
2022/07/15 03:08:26;;;;;;;1.55;0.85;;;;;;;12.16;100.00;100745.09;7388257;19;20022;-78
2022/07/15 03:10:52;;;;;;;0.57;0.20;;;;;;;12.15;100.00;100742.75;7388051;19;20090;-78
2022/07/15 03:13:19;;;;;;;2.85;1.08;;;;;;;12.11;100.00;100744.91;7388888;19;20010;-78
2022/07/15 03:15:46;;;;;;;0.88;0.32;;;;;;;12.08;100.00;100748.66;7389636;19;20033;-78
2022/07/15 03:18:13;;;;;;;1.17;0.50;;;;;;;12.01;100.00;100744.16;7387216;19;20014;-77
2022/07/15 03:20:39;;;;;;;0.40;0.35;;;;;;;12.00;100.00;100747.38;7387256;19;20014;-78
2022/07/15 03:23:05;;;;;;;1.30;0.43;;;;;;;12.01;100.00;100752.53;7387161;19;20345;-78
2022/07/15 03:25:32;;;;;;;0.85;0.52;;;;;;;11.99;100.00;100746.63;7384662;19;20024;-78
2022/07/15 03:28:04;;;;;;;0.40;0.40;;;;;;;12.01;100.00;100746.94;7388000;19;20025;-78
2022/07/15 03:30:35;;;;;;;0.30;0.10;;;;;;;12.06;100.00;100749.09;7386381;19;20014;-78
2022/07/15 03:33:01;;;;;;;1.35;0.47;;;;;;;12.10;100.00;100752.53;7387902;19;20031;-78
2022/07/15 03:35:27;;;;;;;0.45;0.45;;;;;;;12.13;100.00;100754.38;7387056;19;20014;-79
2022/07/15 03:37:53;;;;;;;0.35;0.25;;;;;;;12.08;100.00;100741.03;7387483;19;20022;-77
2022/07/15 03:40:20;;;;;;;3.30;0.70;;;;;;;12.08;100.00;100726.31;7387894;19;20854;-78
2022/07/15 03:42:46;;;;;;;1.02;0.40;;;;;;;12.04;100.00;100722.91;7386717;19;20018;-78
2022/07/15 03:45:13;;;;;;;0.90;0.65;;;;;;;12.01;100.00;100721.81;7387119;19;20014;-78
2022/07/15 03:47:40;;;;;;;0.70;0.30;;;;;;;12.03;100.00;100724.13;7387775;19;20022;-78
2022/07/15 03:50:11;;;;;;;1.17;0.40;;;;;;;12.03;100.00;100730.50;7387766;19;20041;-78
2022/07/15 03:52:37;;;;;;;0.88;0.57;;;;;;;12.00;100.00;100736.22;7387585;19;20018;-78
2022/07/15 03:55:10;;;;;;;0.60;0.32;;;;;;;11.95;100.00;100726.44;7257407;19;20566;-79
2022/07/15 03:57:40;;;;;;;0.38;0.32;;;;;;;11.90;100.00;100717.91;7185387;19;20042;-78
2022/07/15 04:00:08;;;;;;;0.50;0.50;;;;;;;11.83;100.00;100730.16;7388528;19;20017;-77
2022/07/15 04:02:43;;;;;;;1.42;0.60;;;;;;;11.75;100.00;100725.34;7393723;19;20508;-77
2022/07/15 04:05:09;;;;;;;0.63;0.40;;;;;;;11.72;100.00;100727.03;7386249;19;20037;-77
2022/07/15 04:07:36;;;;;;;1.75;0.40;;;;;;;11.67;100.00;100724.88;7388485;19;20025;-77
2022/07/15 04:10:03;;;;;;;0.20;0.20;;;;;;;11.61;100.00;100723.88;7385831;19;20468;-77
2022/07/15 04:12:30;;;;;;;1.50;0.73;;;;;;;11.48;100.00;100722.47;7388153;19;20495;-78
2022/07/15 04:14:56;;;;;;;1.23;0.68;;;;;;;11.42;100.00;100727.84;7384324;19;20474;-78
2022/07/15 04:17:23;;;;;;;0.70;0.60;;;;;;;11.39;100.00;100714.84;7386133;19;20007;-78
2022/07/15 04:19:49;;;;;;;1.35;0.52;;;;;;;11.41;100.00;100717.97;7385611;19;20040;-79
2022/07/15 04:22:16;;;;;;;0.82;0.40;;;;;;;11.44;100.00;100717.00;7385573;19;20022;-78
2022/07/15 04:24:48;;;;;;;0.50;0.50;;;;;;;11.47;100.00;100721.69;7384019;19;20089;-78
2022/07/15 04:27:16;;;;;;;0.25;0.10;;;;;;;11.54;100.00;100715.81;7390353;19;20018;-79
2022/07/15 04:29:44;;;;;;;0.85;0.52;;;;;;;11.58;100.00;100713.66;7385728;19;20018;-79
2022/07/15 04:32:12;;;;;;;1.80;0.93;;;;;;;11.62;100.00;100722.66;7389665;19;20037;-79
2022/07/15 04:34:41;;;;;;;0.30;0.30;;;;;;;11.57;100.00;100712.09;7384299;19;20021;-79
2022/07/15 04:37:07;;;;;;;3.10;0.32;;;;;;;11.55;100.00;100708.22;7391264;19;20022;-78
2022/07/15 04:39:34;;;;;;;4.63;0.88;;;;;;;11.53;100.00;100708.69;7385702;19;20870;-78
2022/07/15 04:42:00;;;;;;;0.30;0.30;;;;;;;11.54;100.00;100701.88;7387558;19;20018;-79
2022/07/15 04:44:27;;;;;;;0.77;0.30;;;;;;;11.49;100.00;100702.47;7384204;19;20367;-78
2022/07/15 04:46:55;;;;;;;0.73;0.73;;;;;;;11.46;100.00;100702.63;7388259;19;20036;-78
2022/07/15 04:52:17;;;;;;;1.38;0.17;;;;;;;11.47;100.00;100693.78;7386938;19;20023;-78
2022/07/15 04:54:46;;;;;;;0.90;0.20;;;;;;;11.43;100.00;100698.75;7383444;19;20026;-78
2022/07/15 04:57:12;;;;;;;0.65;0.57;;;;;;;11.34;100.00;100690.34;7389974;19;20018;-79
2022/07/15 04:59:38;;;;;;;1.08;0.40;;;;;;;11.36;100.00;100694.22;7385393;19;20968;-79
2022/07/15 05:02:08;;;;;;;1.33;0.88;;;;;;;11.38;100.00;100704.91;7387971;19;20422;-79
2022/07/15 05:04:41;;;;;;;0.75;0.30;;;;;;;11.38;100.00;100685.41;7384176;19;20019;-79
2022/07/15 05:07:09;;;;;;;;;;;;;;;11.36;100.00;100688.66;7391140;19;20031;-78
2022/07/15 05:09:37;;;;;;;2.25;0.45;;;;;;;11.43;100.00;100688.34;7391762;19;19942;-79
2022/07/15 05:12:03;;;;;;;0.63;0.43;;;;;;;11.54;100.00;100690.72;7396670;19;20021;-79
2022/07/15 05:14:34;;;;;;;1.30;0.43;;;;;;;11.64;100.00;100688.69;7390049;19;20486;-79
2022/07/15 05:17:01;;;;;;;2.45;0.63;;;;;;;11.74;100.00;100685.50;7394843;19;20588;-79
2022/07/15 05:19:27;;;;;;;0.30;0.20;;;;;;;11.83;100.00;100679.13;7389874;19;20105;-78
2022/07/15 05:21:54;;;;;;;1.33;0.40;;;;;;;11.87;100.00;100677.75;7391416;19;20179;-79
2022/07/15 05:24:20;;;;;;;0.40;0.22;;;;;;;11.89;100.00;100683.63;7389386;19;20018;-79
2022/07/15 05:26:47;;;;;;;7.97;0.55;;;;;;;11.91;100.00;100688.78;7395445;19;20018;-79
2022/07/15 05:29:14;;;;;;;0.95;0.30;;;;;;;11.94;100.00;100699.78;7391352;19;20105;-79
2022/07/15 05:31:41;;;;;;;0.70;0.32;;;;;;;11.97;100.00;100698.88;7394158;19;20033;-78
2022/07/15 05:34:09;;;;;;;0.57;0.50;;;;;;;12.07;100.00;100696.84;7390146;19;20010;-79
2022/07/15 05:36:36;;;;;;;1.30;0.40;;;;;;;12.12;100.00;100707.38;7393512;19;20359;-79
2022/07/15 05:39:03;;;;;;;1.17;0.55;;;;;;;12.17;100.00;100698.41;7391748;19;20019;-79
2022/07/15 05:41:31;;;;;;;0.38;0.38;;;;;;;12.29;100.00;100702.25;7390879;19;20018;-78
2022/07/15 05:44:00;;;;;;;1.88;0.63;;;;;;;12.46;100.00;100700.69;7390721;19;20018;-78
2022/07/15 05:46:28;;;;;;;2.17;0.60;;;;;;;12.61;100.00;100701.59;7393500;19;20510;-79
2022/07/15 05:49:00;;;;;;;0.63;0.43;;;;;;;12.79;100.00;100701.56;7391204;19;20018;-78
2022/07/15 05:51:28;;;;;;;2.03;0.77;;;;;;;12.96;100.00;100699.94;7390814;19;20018;-79
2022/07/15 05:53:55;;;;;;;0.20;0.20;;;;;;;13.18;100.00;100689.31;7388655;19;20025;-79
2022/07/15 05:56:21;;;;;;;3.13;0.40;;;;;;;13.38;100.00;100686.72;7394043;19;20018;-79
2022/07/15 05:58:48;;;;;;;0.40;0.30;;;;;;;13.56;100.00;100674.66;7390684;19;20015;-79
2022/07/15 06:01:14;;;;;;;2.45;0.50;;;;;;;13.72;100.00;100687.44;7392291;19;20018;-79
2022/07/15 06:03:41;;;;;;;1.65;0.35;;;;;;;13.83;100.00;100687.69;7389492;19;20090;-80
2022/07/15 06:06:07;;;;;;;1.17;0.65;;;;;;;13.99;100.00;100692.88;7394797;19;20051;-79
2022/07/15 06:08:35;;;;;;;2.55;0.98;;;;;;;14.12;100.00;100694.13;7391330;19;20018;-79
2022/07/15 06:11:01;;;;;;;0.93;0.57;;;;;;;14.22;100.00;100692.03;7390740;19;20018;-79
2022/07/15 06:13:28;;;;;;;5.32;0.43;;;;;;;14.33;100.00;100686.69;7393061;19;20022;-79
2022/07/15 06:15:55;;;;;;;2.17;0.47;;;;;;;14.47;100.00;100697.13;7391879;19;20039;-79
2022/07/15 06:18:24;;;;;;;3.50;0.60;;;;;;;14.56;100.00;100688.63;7389458;19;20080;-79
2022/07/15 06:20:51;;;;;;;12.02;1.88;;;;;;;14.59;100.00;100686.91;7389914;19;20027;-79
2022/07/15 06:23:18;;;;;;;9.85;3.20;;;;;;;14.65;100.00;100688.53;7389282;19;20464;-79
2022/07/15 06:25:44;;;;;;;11.60;3.08;;;;;;;14.74;100.00;100682.84;7391411;19;20392;-79
2022/07/15 06:28:11;;;;;;;9.10;2.60;;;;;;;14.94;100.00;100680.09;7389220;19;20782;-80
2022/07/15 06:30:37;;;;;;;2.80;0.95;;;;;;;15.08;100.00;100684.16;7389152;19;20636;-79
2022/07/15 06:33:05;;;;;;;12.35;3.13;;;;;;;15.16;100.00;100677.66;7389698;19;20018;-79
2022/07/15 06:35:31;;;;;;;3.00;1.35;;;;;;;15.25;100.00;100675.97;7388027;19;20082;-79
2022/07/15 06:37:57;;;;;;;5.20;1.08;;;;;;;15.33;100.00;100674.31;7389597;19;20506;-79
2022/07/15 06:40:23;;;;;;;5.38;1.58;;;;;;;15.42;100.00;100674.22;7389581;19;20355;-80
2022/07/15 06:42:50;;;;;;;2.40;0.90;;;;;;;15.52;100.00;100673.63;7392553;19;20621;-79
2022/07/15 06:45:25;;;;;;;1.05;0.55;;;;;;;15.60;100.00;100668.34;7388186;19;20026;-79
2022/07/15 06:47:51;;;;;;;0.75;0.63;;;;;;;15.68;100.00;100670.25;7388863;19;20427;-79
2022/07/15 06:50:19;;;;;;;1.65;0.93;;;;;;;15.81;100.00;100667.06;7387910;19;20018;-79
2022/07/15 06:52:46;;;;;;;1.80;0.70;;;;;;;16.02;100.00;100677.06;7387935;19;20038;-79
2022/07/15 06:55:12;;;;;;;1.27;0.93;;;;;;;16.18;100.00;100676.47;7385643;19;20010;-79
2022/07/15 06:57:39;;;;;;;4.95;0.93;;;;;;;16.36;100.00;100673.34;7391797;19;20025;-79
2022/07/15 07:00:08;;;;;;;0.47;0.47;;;;;;;16.52;100.00;100675.56;7391407;19;20093;-79
2022/07/15 07:02:37;;;;;;;4.03;0.50;;;;;;;16.67;100.00;100669.84;7394468;19;20021;-79
2022/07/15 07:05:04;;;;;;;1.40;0.52;;;;;;;16.70;100.00;100668.81;7387269;19;20010;-79
2022/07/15 07:07:31;;;;;;;2.63;0.70;;;;;;;16.68;100.00;100672.13;7389013;19;20666;-79
2022/07/15 07:09:57;;;;;;;1.80;0.50;;;;;;;16.63;100.00;100663.66;7388781;19;20035;-80
2022/07/15 07:12:24;;;;;;;4.55;0.40;;;;;;;16.50;100.00;100661.22;7392017;19;20033;-80
2022/07/15 07:14:51;;;;;;;2.05;0.65;;;;;;;16.44;100.00;100657.56;7387561;19;20021;-80
2022/07/15 07:17:17;;;;;;;1.20;0.30;;;;;;;16.39;100.00;100652.69;7393911;19;20018;-80
2022/07/15 07:19:43;;;;;;;2.47;0.28;;;;;;;16.39;100.00;100655.50;7387816;19;20015;-80
2022/07/15 07:22:09;;;;;;;1.17;0.17;;;;;;;16.41;100.00;100660.59;7387809;19;20041;-80
2022/07/15 07:24:35;;;;;;;1.83;0.77;;;;;;;16.42;100.00;100659.31;7384802;19;20384;-80
2022/07/15 07:27:02;;;;;;;1.02;0.32;;;;;;;16.40;100.00;100657.03;7392938;19;20023;-80
2022/07/15 07:29:28;;;;;;;4.10;0.40;;;;;;;16.36;100.00;100659.28;7388765;19;20354;-80
2022/07/15 07:31:54;;;;;;;7.65;0.65;;;;;;;16.41;100.00;100658.56;7388097;19;20021;-80
2022/07/15 07:34:20;;;;;;;0.82;0.20;;;;;;;16.50;100.00;100649.22;7388182;19;20375;-81
2022/07/15 07:36:48;;;;;;;3.67;0.20;;;;;;;16.57;100.00;100652.34;7390787;19;20023;-80
2022/07/15 07:39:14;;;;;;;0.55;0.38;;;;;;;16.78;100.00;100657.91;7391000;19;20027;-81
2022/07/15 07:41:41;;;;;;;2.80;0.52;;;;;;;16.96;100.00;100651.88;7387104;19;20018;-81
2022/07/15 07:44:07;;;;;;;1.35;0.30;;;;;;;17.09;100.00;100652.25;7391122;19;20021;-80
2022/07/15 07:46:34;;;;;;;2.80;0.60;;;;;;;17.21;100.00;100651.06;7391151;19;20383;-81
2022/07/15 07:49:00;;;;;;;2.20;0.63;;;;;;;17.35;100.00;100648.06;7386855;19;20029;-79
2022/07/15 07:51:26;;;;;;;1.90;0.85;;;;;;;17.61;100.00;100645.16;7391241;19;20523;-80
2022/07/15 07:53:52;;;;;;;4.75;0.73;;;;;;;17.66;100.00;100657.72;7385225;19;20025;-80
2022/07/15 07:56:19;;;;;;;2.17;0.43;;;;;;;17.63;100.00;100659.50;7390132;19;20019;-80
2022/07/15 07:58:45;;;;;;;0.88;0.40;;;;;;;17.60;100.00;100652.09;7390853;19;20026;-81
2022/07/15 08:01:11;;;;;;;1.40;0.20;;;;;;;17.55;100.00;100650.00;7392825;19;20039;-80
2022/07/15 08:03:38;;;;;;;2.22;0.75;;;;;;;17.52;100.00;100659.44;7388089;19;20074;-80
2022/07/15 08:06:04;;;;;;;0.22;0.20;;;;;;;17.50;100.00;100655.59;7390464;19;20011;-80
2022/07/15 08:08:30;;;;;;;0.45;0.28;;;;;;;17.54;100.00;100659.75;7386680;19;20021;-80
2022/07/15 08:10:57;;;;;;;3.30;0.32;;;;;;;17.72;100.00;100653.66;7387221;19;20034;-80
2022/07/15 08:13:25;;;;;;;1.25;0.20;;;;;;;18.01;100.00;100653.28;7387872;19;20014;-79
2022/07/15 08:15:53;;;;;;;4.57;0.40;;;;;;;18.22;100.00;100655.88;7388164;19;20027;-79
2022/07/15 08:18:20;;;;;;;1.95;0.35;;;;;;;18.40;100.00;100646.94;7385879;19;20020;-79
2022/07/15 08:20:46;;;;;;;0.93;0.43;;;;;;;18.60;100.00;100643.94;7386946;19;20477;-79
2022/07/15 08:23:14;;;;;;;0.57;0.30;;;;;;;18.81;100.00;100636.75;7390519;19;20055;-88
2022/07/15 08:25:40;;;;;;;1.10;0.43;;;;;;;19.04;100.00;100635.44;7391287;19;20006;-85
2022/07/15 08:28:07;;;;;;;3.00;0.68;;;;;;;19.29;100.00;100637.22;7389837;19;20037;-79
2022/07/15 08:30:34;;;;;;;0.77;0.17;;;;;;;19.54;100.00;100622.00;7384983;19;20018;-80
2022/07/15 08:33:00;;;;;;;0.20;0.20;;;;;;;19.72;100.00;100625.53;7385280;19;20015;-80
2022/07/15 08:35:27;;;;;;;4.90;0.20;;;;;;;19.98;100.00;100623.09;7383880;19;20011;-81
2022/07/15 08:37:54;;;;;;;0.20;0.20;;;;;;;20.21;100.00;100625.28;7386015;19;20052;-81
2022/07/15 08:40:20;;;;;;;0.55;0.10;;;;;;;20.34;100.00;100624.69;7386267;19;20030;-80
2022/07/15 08:42:47;;;;;;;0.45;0.20;;;;;;;20.40;100.00;100616.94;7389660;19;20018;-81
2022/07/15 08:45:16;;;;;;;1.95;0.30;;;;;;;20.47;100.00;100622.03;7390328;19;20037;-81
2022/07/15 08:47:46;;;;;;;0.43;0.20;;;;;;;20.61;100.00;100615.25;7392713;19;20026;-80
2022/07/15 08:50:16;;;;;;;2.05;0.10;;;;;;;20.78;100.00;100615.88;7392548;19;20022;-80
2022/07/15 08:52:43;;;;;;;0.03;0.00;;;;;;;20.84;100.00;100608.09;7392969;19;20078;-80
2022/07/15 08:55:11;;;;;;;1.60;0.17;;;;;;;20.68;100.00;100616.75;7389407;19;20013;-79
2022/07/15 08:57:37;;;;;;;0.45;0.10;;;;;;;20.62;100.00;100608.28;7394416;19;20535;-80
2022/07/15 09:00:09;;;;;;;0.80;0.00;;;;;;;20.58;100.00;100604.97;7394134;19;20026;-80
2022/07/15 09:02:37;;;;;;;0.40;0.20;;;;;;;20.61;100.00;100606.75;7394378;19;20007;-80
2022/07/15 09:05:22;;;;;;;0.65;0.35;;;;;;;20.74;100.00;100601.25;7390199;19;20348;-80
2022/07/15 09:07:59;;;;;;;15.02;0.75;;;;;;;20.83;100.00;100600.91;7394460;19;20047;-80
2022/07/15 09:10:50;;;;;;;2.13;0.52;;;;;;;21.03;100.00;100594.03;7391971;19;20023;-82
2022/07/15 09:13:28;;;;;;;6.47;0.63;;;;;;;21.34;100.00;100578.50;7392950;19;20082;-81
2022/07/15 09:15:57;;;;;;;1.48;0.25;;;;;;;21.74;100.00;100583.16;7395816;19;20365;-80
2022/07/15 09:18:29;;;;;;;0.20;0.20;;;;;;;21.96;100.00;100574.38;7393802;19;20015;-81
2022/07/15 09:20:57;;;;;;;4.38;0.10;;;;;;;22.17;100.00;100572.53;7394068;19;20834;-81
2022/07/15 09:23:29;;;;;;;0.10;0.00;;;;;;;22.38;100.00;100559.28;7393802;19;20081;-81
2022/07/15 09:26:20;;;;;;;0.75;0.32;;;;;;;22.41;100.00;100563.88;7390388;19;20031;-82
2022/07/15 09:28:46;;;;;;;0.35;0.13;;;;;;;22.50;100.00;100566.28;7390136;19;20078;-79
2022/07/15 09:34:02;;;;;;;3.15;0.73;;;;;;;22.53;100.00;100553.88;7391165;19;20011;-80
2022/07/15 09:36:32;;;;;;;5.50;0.85;;;;;;;22.42;100.00;100558.97;7394110;19;20011;-80
2022/07/15 09:39:01;;;;;;;0.10;0.10;;;;;;;22.41;100.00;100557.44;7393975;19;20029;-81
2022/07/15 09:41:42;;;;;;;2.85;0.90;;;;;;;22.44;100.00;100556.34;7395280;19;20033;-80
2022/07/15 09:44:12;;;;;;;;;;;;;;;22.33;100.00;100554.44;7392746;19;20010;-80
2022/07/15 09:46:49;;;;;;;0.55;0.25;;;;;;;22.15;100.00;100558.09;7390089;19;19926;-80
2022/07/15 09:49:24;;;;;;;5.85;0.35;;;;;;;22.02;100.00;100552.38;7389448;19;20019;-80
2022/07/15 09:52:07;;;;;;;2.90;0.77;;;;;;;21.97;100.00;100550.38;7393467;19;20037;-80
2022/07/15 09:54:36;;;;;;;0.73;0.20;;;;;;;22.18;100.00;100545.66;7388896;19;20018;-79
2022/07/15 09:57:05;;;;;;;0.68;0.13;;;;;;;22.42;100.00;100554.06;7399227;19;20029;-79
2022/07/15 09:59:31;;;;;;;1.08;0.32;;;;;;;22.28;100.00;100543.97;7395817;19;20102;-78
2022/07/15 10:01:58;;;;;;;0.55;0.20;;;;;;;22.26;100.00;100546.56;7392897;19;20022;-80
2022/07/15 10:04:27;;;;;;;0.63;0.20;;;;;;;22.07;100.00;100545.84;7391186;19;20369;-79
2022/07/15 10:06:55;;;;;;;2.15;0.10;;;;;;;21.93;100.00;100561.28;7395242;19;20038;-80
2022/07/15 10:09:27;;;;;;;0.22;0.10;;;;;;;21.93;100.00;100555.59;7390675;19;20463;-79
2022/07/15 10:12:09;;;;;;;0.77;0.38;;;;;;;22.13;100.00;100552.22;7396310;19;20480;-80
2022/07/15 10:15:12;;;;;;;0.17;0.10;;;;;;;22.44;100.00;100545.75;7388368;19;20052;-79
2022/07/15 10:17:57;;;;;;;0.40;0.10;;;;;;;22.55;100.00;100542.72;7390162;19;20026;-78
2022/07/15 10:20:42;;;;;;;1.38;0.10;;;;;;;22.57;100.00;100542.97;7391476;19;20014;-77
2022/07/15 10:23:33;;;;;;;1.00;0.20;;;;;;;22.44;100.00;100534.41;7389968;19;20015;-78
2022/07/15 10:26:37;;;;;;;0.57;0.10;;;;;;;22.38;100.00;100528.06;7394065;19;20035;-78
2022/07/15 10:29:06;;;;;;;1.33;0.08;;;;;;;22.18;100.00;100534.31;7390585;19;20014;-78
2022/07/15 10:31:34;;;;;;;0.30;0.20;;;;;;;22.22;100.00;100531.94;7386844;19;20027;-78
2022/07/15 10:34:04;;;;;;;0.20;0.00;;;;;;;22.27;100.00;100533.91;7390417;19;20017;-78
2022/07/15 10:36:45;;;;;;;2.22;0.10;;;;;;;22.46;100.00;100528.19;7394573;19;20037;-78
2022/07/15 10:39:13;;;;;;;1.75;0.30;;;;;;;22.75;100.00;100529.25;7392043;19;20018;-78
2022/07/15 10:42:04;;;;;;;2.38;0.30;;;;;;;22.50;100.00;100540.75;7392225;19;20717;-78
2022/07/15 10:44:33;;;;;;;3.22;0.30;;;;;;;22.62;100.00;100530.00;7389669;19;20480;-80
2022/07/15 10:47:12;;;;;;;0.30;0.10;;;;;;;23.09;100.00;100524.47;7391129;19;20022;-79
2022/07/15 10:49:40;;;;;;;0.50;0.22;;;;;;;23.34;100.00;100528.66;7390513;19;20791;-81
2022/07/15 10:52:30;;;;;;;1.85;0.13;;;;;;;23.11;100.00;100530.34;7391091;19;20038;-81
2022/07/15 10:54:59;;;;;;;0.30;0.00;;;;;;;22.77;100.00;100532.31;7387807;19;20405;-81
2022/07/15 10:57:41;;;;;;;0.60;0.10;;;;;;;22.51;100.00;100530.94;7390306;19;20018;-80
2022/07/15 11:00:33;;;;;;;0.65;0.32;;;;;;;22.28;100.00;100534.69;7387989;19;20010;-81
2022/07/15 11:03:12;;;;;;;0.28;0.10;;;;;;;22.70;100.00;100524.47;7389221;19;20015;-80
2022/07/15 11:05:45;;;;;;;0.60;0.20;;;;;;;23.17;100.00;100528.19;7390708;19;20019;-80
2022/07/15 11:08:42;;;;;;;0.63;0.10;;;;;;;23.43;100.00;100519.69;7390079;19;20019;-80
2022/07/15 11:11:14;;;;;;;3.72;1.00;;;;;;;23.28;100.00;100530.81;7388345;19;20019;-79
2022/07/15 11:13:42;;;;;;;0.20;0.10;;;;;;;23.36;100.00;100523.19;7388328;19;20022;-79
2022/07/15 11:16:12;;;;;;;0.30;0.30;;;;;;;23.70;100.00;100515.44;7391880;19;20010;-79
2022/07/15 11:18:53;;;;;;;2.63;0.25;;;;;;;24.18;100.00;100524.72;7389998;19;20018;-79
2022/07/15 11:21:20;;;;;;;0.20;0.10;;;;;;;24.43;100.00;100517.38;7388228;19;20022;-79
2022/07/15 11:23:49;;;;;;;0.77;0.22;;;;;;;24.36;100.00;100518.06;7387863;19;20030;-80
2022/07/15 11:26:15;;;;;;;1.90;0.00;;;;;;;24.40;100.00;100518.47;7390197;19;20010;-80
2022/07/15 11:28:55;;;;;;;0.17;0.10;;;;;;;24.68;100.00;100509.97;7388402;19;20579;-80
2022/07/15 11:31:22;;;;;;;0.63;0.20;;;;;;;24.57;100.00;100515.97;7387426;19;20049;-79